Time;durP1;ratioP1;P1;durP2;ratioP2;P2;SDS_P1;SDS_P2;PMS_P1;PMS_P2;Temp;Humidity;BMP_temperature;BMP_pressure;BME280_temperature;BME280_humidity;BME280_pressure;Samples;Min_cycle;Max_cycle;Signal;HPM_P1;HPM_P2
2022/09/07 00:01:16;;;;;;;;;;;;;;;17.23;100.00;98219.81;5095715;28;20018;-79
2022/09/07 00:03:43;;;;;;;;;;;;;;;17.21;100.00;98233.63;5095390;28;19924;-79
2022/09/07 00:06:11;;;;;;;;;;;;;;;16.84;100.00;98219.13;5077496;28;19928;-79
2022/09/07 00:08:39;;;;;;;;;;;;;;;17.13;100.00;98221.19;5077194;28;19935;-79
2022/09/07 00:11:09;;;;;;;;;;;;;;;16.88;100.00;98221.75;5095523;28;19931;-79
2022/09/07 00:13:37;;;;;;;;;;;;;;;16.63;100.00;98222.34;5095333;28;20018;-79
2022/09/07 00:16:05;;;;;;;;;;;;;;;16.76;100.00;98220.00;5095319;28;19924;-79
2022/09/07 00:18:32;;;;;;;;;;;;;;;16.88;100.00;98216.13;5077230;28;19947;-79
2022/09/07 00:21:01;;;;;;;;;;;;;;;17.05;100.00;98231.31;5095203;28;19935;-79
2022/09/07 00:23:29;;;;;;;;;;;;;;;17.32;100.00;98222.53;5094799;28;19931;-80
2022/09/07 00:26:04;;;;;;;;;;;;;;;16.89;100.00;98223.34;5095549;28;20286;-79
2022/09/07 00:28:31;;;;;;;;;;;;;;;17.15;100.00;98225.06;5095191;28;19924;-79
2022/09/07 00:31:00;;;;;;;;;;;;;;;17.35;100.00;98227.19;5094578;28;19924;-79
2022/09/07 00:33:28;;;;;;;;;;;;;;;17.08;100.00;98224.69;5095176;28;20422;-79
2022/09/07 00:35:57;;;;;;;;;;;;;;;16.88;100.00;98221.75;5076837;28;19931;-79
2022/09/07 00:38:24;;;;;;;;;;;;;;;17.33;100.00;98218.41;5094758;28;19928;-79
2022/09/07 00:40:52;;;;;;;;;;;;;;;17.37;100.00;98219.03;5094914;28;19932;-79
2022/09/07 00:43:28;;;;;;;;;;;;;;;16.97;100.00;98227.31;5076824;28;19928;-79
2022/09/07 00:45:55;;;;;;;;;;;;;;;16.93;100.00;98229.56;5094821;28;19974;-79
2022/09/07 00:48:26;;;;;;;;;;;;;;;17.18;100.00;98218.44;5076601;28;20276;-79
2022/09/07 00:50:58;;;;;;;;;;;;;;;17.28;100.00;98221.94;5094666;28;19924;-79
2022/09/07 00:53:30;;;;;;;;;;;;;;;17.01;100.00;98220.19;5094396;28;20462;-79
2022/09/07 00:55:58;;;;;;;;;;;;;;;17.08;100.00;98221.88;5094561;28;19924;-79
2022/09/07 00:58:26;;;;;;;;;;;;;;;17.14;100.00;98217.09;5094345;28;20287;-79
2022/09/07 01:00:54;;;;;;;;;;;;;;;16.94;100.00;98214.16;5094618;28;19938;-79
2022/09/07 01:03:27;;;;;;;;;;;;;;;16.77;100.00;98221.53;5094353;28;19932;-79
2022/09/07 01:05:58;;;;;;;;;;;;;;;16.60;100.00;98215.59;5076095;28;19924;-79
2022/09/07 01:08:25;;;;;;;;;;;;;;;16.36;100.00;98216.91;5059637;28;19924;-79
2022/09/07 01:10:53;;;;;;;;;;;;;;;16.37;100.00;98221.28;5094296;28;20010;-79
2022/09/07 01:13:21;;;;;;;;;;;;;;;16.15;100.00;98210.31;5059947;28;20045;-79
2022/09/07 01:15:53;;;;;;;;;;;;;;;16.46;100.00;98209.94;5076425;28;19930;-79
2022/09/07 01:18:25;;;;;;;;;;;;;;;16.48;100.00;98218.72;5074907;28;20031;-79
2022/09/07 01:21:04;;;;;;;;;;;;;;;16.57;100.00;98212.97;5073198;28;20330;-79
2022/09/07 01:23:42;;;;;;;;;;;;;;;16.32;100.00;98213.47;5070323;28;20387;-79
2022/09/07 01:26:28;;;;;;;;;;;;;;;16.12;100.00;98200.78;5071740;28;19932;-79
2022/09/07 01:29:05;;;;;;;;;;;;;;;16.39;100.00;98210.31;5070680;28;20397;-79
2022/09/07 01:31:46;;;;;;;;;;;;;;;16.39;100.00;98208.25;5070403;28;20298;-79
2022/09/07 01:34:21;;;;;;;;;;;;;;;16.81;100.00;98193.94;5072245;28;19928;-79
2022/09/07 01:36:51;;;;;;;;;;;;;;;16.53;100.00;98207.53;5073350;28;19924;-79
2022/09/07 01:39:21;;;;;;;;;;;;;;;16.69;100.00;98211.94;5073485;28;19931;-79
2022/09/07 01:41:53;;;;;;;;;;;;;;;16.71;100.00;98195.28;5072982;28;20426;-79
2022/09/07 01:44:23;;;;;;;;;;;;;;;16.18;100.00;98203.72;5071870;28;19925;-79
2022/09/07 01:47:00;;;;;;;;;;;;;;;15.87;100.00;98201.28;5072325;28;19931;-79
2022/09/07 01:49:54;;;;;;;;;;;;;;;15.92;100.00;98202.66;5073396;28;20013;-79
2022/09/07 01:52:36;;;;;;;;;;;;;;;16.30;100.00;98199.09;5069601;28;20352;-79
2022/09/07 01:55:04;;;;;;;;;;;;;;;16.13;100.00;98201.56;5073286;28;19939;-79
2022/09/07 01:57:36;;;;;;;;;;;;;;;16.15;100.00;98207.50;5073300;28;19925;-79
2022/09/07 02:00:09;;;;;;;;;;;;;;;16.24;100.00;98207.44;5073284;28;19925;-79
2022/09/07 02:02:56;;;;;;;;;;;;;;;16.13;100.00;98196.72;5071962;28;19924;-79
2022/09/07 02:05:27;;;;;;;;;;;;;;;16.17;100.00;98193.72;5071645;28;20050;-79
2022/09/07 02:08:03;;;;;;;;;;;;;;;16.35;100.00;98201.22;5055423;28;19924;-79
2022/09/07 02:10:54;;;;;;;;;;;;;;;15.89;100.00;98203.59;5071975;28;20019;-79
2022/09/07 02:13:25;;;;;;;;;;;;;;;15.83;100.00;98188.63;5072201;28;20287;-79
2022/09/07 02:15:56;;;;;;;;;;;;;;;16.08;100.00;98188.91;5073089;28;20418;-79
2022/09/07 02:18:24;;;;;;;;;;;;;;;15.97;100.00;98183.06;5072964;28;19924;-79
2022/09/07 02:20:53;;;;;;;;;;;;;;;15.83;100.00;98194.25;5072764;28;20005;-79
2022/09/07 02:23:31;;;;;;;;;;;;;;;16.24;100.00;98191.31;5075690;28;19924;-79
2022/09/07 02:26:01;;;;;;;;;;;;;;;15.97;100.00;98202.00;5075135;28;19931;-79
2022/09/07 02:28:31;;;;;;;;;;;;;;;16.07;100.00;98209.91;5093127;28;19924;-79
2022/09/07 02:30:59;;;;;;;;;;;;;;;16.25;100.00;98203.38;5075227;28;20378;-79
2022/09/07 02:33:26;;;;;;;;;;;;;;;15.95;100.00;98194.03;5092621;28;19924;-79
2022/09/07 02:35:54;;;;;;;;;;;;;;;16.06;100.00;98205.53;5093034;28;19924;-79
2022/09/07 02:38:21;;;;;;;;;;;;;;;16.09;100.00;98207.41;5075242;28;19971;-80
2022/09/07 02:40:52;;;;;;;;;;;;;;;15.95;100.00;98219.38;5092909;28;20375;-79
2022/09/07 02:43:20;;;;;;;;;;;;;;;16.22;100.00;98221.25;5092973;28;19924;-79
2022/09/07 02:45:56;;;;;;;;;;;;;;;15.76;100.00;98223.59;5092831;28;20428;-79
2022/09/07 02:48:41;;;;;;;;;;;;;;;16.12;100.00;98214.88;5092605;28;19924;-79
2022/09/07 02:51:22;;;;;;;;;;;;;;;16.04;100.00;98227.78;5074934;28;19924;-79
2022/09/07 02:53:58;;;;;;;;;;;;;;;16.31;100.00;98211.94;5076355;28;19931;-79
2022/09/07 02:56:31;;;;;;;;;;;;;;;15.54;100.00;98214.59;5096935;28;19951;-79
2022/09/07 02:59:03;;;;;;;;;;;;;;;16.25;100.00;98214.63;5096783;28;19928;-79
2022/09/07 03:01:36;;;;;;;;;;;;;;;16.52;100.00;98210.81;5096837;28;20448;-79
2022/09/07 03:04:04;;;;;;;;;;;;;;;16.24;100.00;98196.94;5078632;28;20402;-79
2022/09/07 03:06:35;;;;;;;;;;;;;;;15.71;100.00;98198.88;5096702;28;19928;-79
2022/09/07 03:09:06;;;;;;;;;;;;;;;16.01;100.00;98197.75;5096516;28;20367;-79
2022/09/07 03:11:35;;;;;;;;;;;;;;;16.25;100.00;98195.66;5062164;28;19924;-79
2022/09/07 03:14:19;;;;;;;;;;;;;;;15.96;100.00;98198.38;5096558;28;19924;-79
2022/09/07 03:16:48;;;;;;;;;;;;;;;16.09;100.00;98207.41;5096163;28;19924;-79
2022/09/07 03:19:15;;;;;;;;;;;;;;;16.00;100.00;98210.28;5096502;28;19932;-80
2022/09/07 03:21:42;;;;;;;;;;;;;;;15.90;100.00;98203.13;5096321;28;19924;-80
2022/09/07 03:24:10;;;;;;;;;;;;;;;16.34;100.00;98216.59;5096194;28;19924;-80
2022/09/07 03:26:39;;;;;;;;;;;;;;;16.50;100.00;98202.84;5096432;28;19931;-80
2022/09/07 03:29:06;;;;;;;;;;;;;;;15.87;100.00;98212.53;5078181;28;19931;-80
2022/09/07 03:31:33;;;;;;;;;;;;;;;16.40;100.00;98214.66;5096045;28;20055;-80
2022/09/07 03:34:00;;;;;;;;;;;;;;;15.75;100.00;98226.88;5096130;28;20306;-80
2022/09/07 03:36:29;;;;;;;;;;;;;;;16.07;100.00;98226.03;5077849;28;20409;-80
2022/09/07 03:38:58;;;;;;;;;;;;;;;16.47;100.00;98215.09;5077898;28;19924;-80
2022/09/07 03:41:25;;;;;;;;;;;;;;;16.63;100.00;98223.09;5096009;28;20303;-80
2022/09/07 03:43:53;;;;;;;;;;;;;;;16.54;100.00;98211.13;5096650;28;19977;-79
2022/09/07 03:46:21;;;;;;;;;;;;;;;16.45;100.00;98225.31;5061562;28;20509;-79
2022/09/07 03:48:48;;;;;;;;;;;;;;;16.87;100.00;98220.22;5075484;28;20009;-79
2022/09/07 03:51:16;;;;;;;;;;;;;;;16.59;100.00;98210.44;5075994;28;19928;-79
2022/09/07 03:53:44;;;;;;;;;;;;;;;16.67;100.00;98203.16;5095544;28;19962;-79
2022/09/07 03:56:17;;;;;;;;;;;;;;;16.67;100.00;98206.00;5095106;28;19924;-79
2022/09/07 03:58:44;;;;;;;;;;;;;;;16.59;100.00;98211.22;5077522;28;19924;-80
2022/09/07 04:01:14;;;;;;;;;;;;;;;16.71;100.00;98212.19;5095214;28;19931;-79
2022/09/07 04:03:41;;;;;;;;;;;;;;;16.67;100.00;98208.81;5096134;28;19946;-79
2022/09/07 04:06:09;;;;;;;;;;;;;;;16.85;100.00;98202.97;5095480;28;20505;-80
2022/09/07 04:08:37;;;;;;;;;;;;;;;16.59;100.00;98204.81;5077963;28;20379;-79
2022/09/07 04:11:05;;;;;;;;;;;;;;;16.74;100.00;98205.59;5096312;28;19931;-79
2022/09/07 04:13:33;;;;;;;;;;;;;;;16.79;100.00;98197.25;5096310;28;20009;-79
2022/09/07 04:16:08;;;;;;;;;;;;;;;16.96;100.00;98197.53;5096010;28;20025;-79
2022/09/07 04:18:35;;;;;;;;;;;;;;;16.21;100.00;98209.19;5078042;28;19939;-79
2022/09/07 04:21:02;;;;;;;;;;;;;;;16.68;100.00;98207.53;5096123;28;20337;-79
2022/09/07 04:23:29;;;;;;;;;;;;;;;16.76;100.00;98203.88;5095974;28;20304;-80
2022/09/07 04:25:56;;;;;;;;;;;;;;;16.83;100.00;98202.69;5095862;28;19931;-79
2022/09/07 04:28:23;;;;;;;;;;;;;;;17.14;100.00;98202.97;5095810;28;19924;-79
2022/09/07 04:30:50;;;;;;;;;;;;;;;17.06;100.00;98205.41;5095742;28;20002;-79
2022/09/07 04:33:17;;;;;;;;;;;;;;;17.34;100.00;98211.53;5095794;28;19985;-80
2022/09/07 04:35:44;;;;;;;;;;;;;;;17.31;100.00;98198.38;5095812;28;19924;-79
2022/09/07 04:38:13;;;;;;;;;;;;;;;17.11;100.00;98201.91;5077627;28;20012;-80
2022/09/07 04:40:40;;;;;;;;;;;;;;;17.14;100.00;98178.38;5077802;28;19928;-79
2022/09/07 04:43:08;;;;;;;;;;;;;;;17.12;100.00;98199.84;5061063;28;19993;-79
2022/09/07 04:45:35;;;;;;;;;;;;;;;17.34;100.00;98205.88;5095319;28;20315;-79
2022/09/07 04:48:03;;;;;;;;;;;;;;;16.81;100.00;98189.06;5095420;28;19931;-79
2022/09/07 04:50:30;;;;;;;;;;;;;;;16.91;100.00;98192.56;5095440;28;20071;-79
2022/09/07 04:52:57;;;;;;;;;;;;;;;16.86;100.00;98196.84;5095409;28;19924;-79
2022/09/07 04:55:25;;;;;;;;;;;;;;;16.86;100.00;98193.25;5077153;28;19928;-79
2022/09/07 04:57:52;;;;;;;;;;;;;;;17.25;100.00;98180.59;5077275;28;19924;-79
2022/09/07 05:00:20;;;;;;;;;;;;;;;16.94;100.00;98185.94;5094961;28;19931;-79
2022/09/07 05:02:47;;;;;;;;;;;;;;;17.12;100.00;98185.75;5077377;28;19924;-79
2022/09/07 05:05:14;;;;;;;;;;;;;;;17.35;100.00;98187.66;5076970;28;19993;-79
2022/09/07 05:07:41;;;;;;;;;;;;;;;16.90;100.00;98182.56;5060660;28;19943;-79
2022/09/07 05:10:08;;;;;;;;;;;;;;;16.94;100.00;98185.94;5075463;28;19924;-79
2022/09/07 05:12:36;;;;;;;;;;;;;;;16.99;100.00;98188.09;5077039;28;19924;-79
2022/09/07 05:15:03;;;;;;;;;;;;;;;17.16;100.00;98181.44;5094699;28;19932;-80
2022/09/07 05:17:30;;;;;;;;;;;;;;;17.34;100.00;98192.53;5076915;28;19924;-79
2022/09/07 05:19:57;;;;;;;;;;;;;;;16.89;100.00;98195.13;5076969;28;19931;-79
2022/09/07 05:22:24;;;;;;;;;;;;;;;17.14;100.00;98184.00;5094829;28;19928;-79
2022/09/07 05:24:51;;;;;;;;;;;;;;;17.31;100.00;98192.75;5094546;28;19932;-79
2022/09/07 05:27:18;;;;;;;;;;;;;;;17.50;100.00;98194.09;5094523;28;19924;-79
2022/09/07 05:29:45;;;;;;;;;;;;;;;17.53;100.00;98187.44;5094742;28;19924;-80
2022/09/07 05:32:28;;;;;;;;;;;;;;;17.71;100.00;98170.25;5079057;28;19924;-80
2022/09/07 05:34:55;;;;;;;;;;;;;;;17.61;100.00;98182.97;5076458;28;19931;-80
2022/09/07 05:37:22;;;;;;;;;;;;;;;16.78;100.00;98181.56;5094628;28;19924;-80
2022/09/07 05:39:51;;;;;;;;;;;;;;;17.09;100.00;98179.03;5094487;28;19924;-79
2022/09/07 05:42:18;;;;;;;;;;;;;;;17.04;100.00;98173.31;5076338;28;19955;-79
2022/09/07 05:44:45;;;;;;;;;;;;;;;17.41;100.00;98177.22;5076433;28;20011;-80
2022/09/07 05:47:12;;;;;;;;;;;;;;;17.53;100.00;98176.16;5076498;28;19932;-79
2022/09/07 05:49:39;;;;;;;;;;;;;;;17.46;100.00;98185.03;5059734;28;20390;-80
2022/09/07 05:52:07;;;;;;;;;;;;;;;17.27;100.00;98192.16;5076196;28;19960;-80
2022/09/07 05:54:34;;;;;;;;;;;;;;;16.98;100.00;98195.03;5076569;28;19931;-80
2022/09/07 05:57:02;;;;;;;;;;;;;;;17.44;100.00;98196.03;5075970;28;19934;-80
2022/09/07 05:59:29;;;;;;;;;;;;;;;17.64;100.00;98194.06;5094319;28;20529;-80
2022/09/07 06:01:56;;;;;;;;;;;;;;;17.42;100.00;98199.34;5076173;28;19930;-80
2022/09/07 06:04:23;;;;;;;;;;;;;;;17.08;100.00;98210.56;5059351;28;20537;-79
2022/09/07 06:06:50;;;;;;;;;;;;;;;17.22;100.00;98201.31;5094118;28;19977;-80
2022/09/07 06:09:37;;;;;;;;;;;;;;;17.52;100.00;98197.22;5094037;28;20272;-79
2022/09/07 06:12:25;;;;;;;;;;;;;;;17.65;100.00;98203.28;5093863;28;20019;-80
2022/09/07 06:14:51;;;;;;;;;;;;;;;17.33;100.00;98205.09;5059390;28;19970;-80
2022/09/07 06:17:18;;;;;;;;;;;;;;;17.77;100.00;98208.63;5093992;28;19932;-80
2022/09/07 06:19:45;;;;;;;;;;;;;;;17.92;100.00;98205.72;5094008;28;20295;-80
2022/09/07 06:22:12;;;;;;;;;;;;;;;17.48;100.00;98207.91;5093847;28;19930;-80
2022/09/07 06:24:39;;;;;;;;;;;;;;;17.72;100.00;98194.44;5093611;28;19925;-80
2022/09/07 06:27:06;;;;;;;;;;;;;;;17.99;100.00;98191.19;5075647;28;19924;-80
2022/09/07 06:29:34;;;;;;;;;;;;;;;17.87;100.00;98190.25;5093390;28;19993;-80
2022/09/07 06:32:01;;;;;;;;;;;;;;;17.99;100.00;98185.53;5076029;28;19935;-79
2022/09/07 06:34:48;;;;;;;;;;;;;;;17.45;100.00;98189.13;5075671;28;19924;-80
2022/09/07 06:37:15;;;;;;;;;;;;;;;17.37;100.00;98191.53;5093888;28;19925;-80
2022/09/07 06:39:42;;;;;;;;;;;;;;;17.71;100.00;98192.84;5093442;28;20290;-80
2022/09/07 06:42:10;;;;;;;;;;;;;;;17.88;100.00;98194.66;5093749;28;19963;-80
2022/09/07 06:44:42;;;;;;;;;;;;;;;18.02;100.00;98187.38;5043237;28;20084;-80
2022/09/07 06:47:09;;;;;;;;;;;;;;;17.92;100.00;98194.44;5075770;28;20249;-80
2022/09/07 06:49:36;;;;;;;;;;;;;;;17.92;100.00;98191.59;5093746;28;19982;-80
2022/09/07 06:52:03;;;;;;;;;;;;;;;17.91;100.00;98195.72;5075613;28;20256;-80
2022/09/07 06:54:30;;;;;;;;;;;;;;;17.87;100.00;98190.25;5058654;28;19935;-80
2022/09/07 06:57:17;;;;;;;;;;;;;;;17.89;100.00;98187.72;5093684;28;19931;-80
2022/09/07 06:59:44;;;;;;;;;;;;;;;17.93;100.00;98199.59;5093870;28;19938;-80
2022/09/07 07:02:13;;;;;;;;;;;;;;;17.44;100.00;98205.31;5093925;28;20072;-80
2022/09/07 07:04:40;;;;;;;;;;;;;;;17.75;100.00;98196.25;5075634;28;20010;-80
2022/09/07 07:07:11;;;;;;;;;;;;;;;17.95;100.00;98201.91;5093544;28;20413;-80
2022/09/07 07:09:38;;;;;;;;;;;;;;;17.64;100.00;98196.09;5093495;28;19931;-80
2022/09/07 07:12:05;;;;;;;;;;;;;;;17.82;100.00;98204.31;5075694;28;19947;-79
2022/09/07 07:14:34;;;;;;;;;;;;;;;17.94;100.00;98200.38;5075382;28;19928;-79
2022/09/07 07:17:02;;;;;;;;;;;;;;;17.67;100.00;98198.72;5093549;28;19931;-80
2022/09/07 07:19:31;;;;;;;;;;;;;;;17.35;100.00;98196.13;5075786;28;19947;-79
2022/09/07 07:21:58;;;;;;;;;;;;;;;17.53;100.00;98207.22;5093406;28;19946;-79
2022/09/07 07:24:36;;;;;;;;;;;;;;;17.58;100.00;98203.72;5093134;28;20007;-79
2022/09/07 07:27:03;;;;;;;;;;;;;;;17.29;100.00;98212.22;5071195;28;19924;-80
2022/09/07 07:29:30;;;;;;;;;;;;;;;17.54;100.00;98201.09;5073371;28;20353;-80
2022/09/07 07:31:57;;;;;;;;;;;;;;;17.78;100.00;98204.50;5054442;28;19924;-80
2022/09/07 07:34:24;;;;;;;;;;;;;;;17.94;100.00;98201.16;5055484;28;19935;-79
2022/09/07 07:36:51;;;;;;;;;;;;;;;17.54;100.00;98201.09;5055328;28;20287;-79
2022/09/07 07:39:18;;;;;;;;;;;;;;;17.66;100.00;98194.31;5037241;28;19928;-79
2022/09/07 07:42:05;;;;;;;;;;;;;;;17.72;100.00;98200.06;5075933;28;19970;-80
2022/09/07 07:44:32;;;;;;;;;;;;;;;17.72;100.00;98194.44;5058815;28;19978;-80
2022/09/07 07:47:00;;;;;;;;;;;;;;;17.46;100.00;98199.16;5076327;28;19931;-79
2022/09/07 07:49:26;;;;;;;;;;;;;;;17.65;100.00;98194.81;5058507;28;20306;-79
2022/09/07 07:51:54;;;;;;;;;;;;;;;17.72;100.00;98194.44;5076205;28;19970;-79
2022/09/07 07:54:42;;;;;;;;;;;;;;;17.82;100.00;98195.84;5058500;28;19924;-78
2022/09/07 07:57:09;;;;;;;;;;;;;;;17.47;100.00;98197.88;5076397;28;20441;-79
2022/09/07 07:59:36;;;;;;;;;;;;;;;18.07;100.00;98200.78;5058551;28;19925;-79
2022/09/07 08:02:04;;;;;;;;;;;;;;;18.35;100.00;98206.78;5076328;28;19924;-79
2022/09/07 08:04:33;;;;;;;;;;;;;;;18.60;100.00;98217.41;5041688;28;20279;-79
2022/09/07 08:07:00;;;;;;;;;;;;;;;17.62;100.00;98204.28;5041391;28;19975;-79
2022/09/07 08:09:29;;;;;;;;;;;;;;;17.41;100.00;98219.59;5076228;28;19932;-79
2022/09/07 08:11:56;;;;;;;;;;;;;;;17.04;100.00;98212.81;5076097;28;19930;-78
2022/09/07 08:14:23;;;;;;;;;;;;;;;17.61;100.00;98212.00;5075989;28;19929;-79
2022/09/07 08:16:51;;;;;;;;;;;;;;;17.63;100.00;98215.09;5042171;28;19925;-79
2022/09/07 08:19:18;;;;;;;;;;;;;;;18.45;100.00;98211.84;5076071;28;19924;-79
2022/09/07 08:21:45;;;;;;;;;;;;;;;18.49;100.00;98206.75;5057968;28;19970;-79
2022/09/07 08:24:13;;;;;;;;;;;;;;;18.20;100.00;98212.53;5057817;28;19929;-79
2022/09/07 08:26:40;;;;;;;;;;;;;;;18.63;100.00;98205.88;5058061;28;19924;-79
2022/09/07 08:29:07;;;;;;;;;;;;;;;17.71;100.00;98210.59;5075715;28;19924;-79
2022/09/07 08:31:34;;;;;;;;;;;;;;;17.65;100.00;98200.47;5075947;28;20020;-79
2022/09/07 08:34:01;;;;;;;;;;;;;;;17.92;100.00;98212.16;5075873;28;20283;-79
2022/09/07 08:36:30;;;;;;;;;;;;;;;17.64;100.00;98225.13;5074256;28;19978;-79
2022/09/07 08:38:57;;;;;;;;;;;;;;;18.38;100.00;98223.59;5075755;28;19925;-79
2022/09/07 08:41:33;;;;;;;;;;;;;;;18.62;100.00;98226.94;5057619;28;20372;-79
2022/09/07 08:44:01;;;;;;;;;;;;;;;17.96;100.00;98231.75;5057892;28;20275;-79
2022/09/07 08:46:34;;;;;;;;;;;;;;;18.57;100.00;98232.56;5075473;28;19925;-79
2022/09/07 08:49:03;;;;;;;;;;;;;;;18.72;100.00;98219.84;5057462;28;19924;-79
2022/09/07 08:51:40;;;;;;;;;;;;;;;19.10;100.00;98216.63;5056964;28;19925;-79
2022/09/07 08:54:09;;;;;;;;;;;;;;;19.12;100.00;98214.09;5075205;28;19925;-80
2022/09/07 08:56:37;;;;;;;;;;;;;;;19.46;100.00;98215.94;5075195;28;19924;-80
2022/09/07 08:59:17;;;;;;;;;;;;;;;19.29;100.00;98217.88;5075188;28;19931;-79
2022/09/07 09:01:45;;;;;;;;;;;;;;;19.52;100.00;98213.91;5057757;28;20307;-78
2022/09/07 09:04:33;;;;;;;;;;;;;;;19.82;100.00;98207.94;5075040;28;20275;-78
2022/09/07 09:07:24;;;;;;;;;;;;;;;19.19;100.00;98196.63;5074934;28;19925;-78
2022/09/07 09:10:10;;;;;;;;;;;;;;;19.58;100.00;98209.06;5073737;28;19924;-78
2022/09/07 09:12:51;;;;;;;;;;;;;;;19.96;100.00;98199.28;5057254;28;19931;-78
2022/09/07 09:15:30;;;;;;;;;;;;;;;20.46;100.00;98196.69;5074825;28;19925;-78
2022/09/07 09:18:32;;;;;;;;;;;;;;;21.66;100.00;98206.63;5056891;28;20334;-78
2022/09/07 09:21:00;;;;;;;;;;;;;;;22.05;100.00;98193.16;4992898;28;19926;-78
2022/09/07 09:23:32;;;;;;;;;;;;;;;22.53;100.00;98184.97;4992873;28;20405;-78
2022/09/07 09:26:03;;;;;;;;;;;;;;;22.03;100.00;98181.53;4992964;28;19926;-78
2022/09/07 09:28:31;;;;;;;;;;;;;;;21.60;100.00;98185.97;4993030;28;19992;-78
2022/09/07 09:30:58;;;;;;;;;;;;;;;21.04;100.00;98188.06;4993079;28;19998;-78
2022/09/07 09:33:26;;;;;;;;;;;;;;;21.01;100.00;98182.63;4976677;28;19930;-78
2022/09/07 09:35:55;;;;;;;;;;;;;;;21.22;100.00;98181.88;4992615;28;20000;-78
2022/09/07 09:38:28;;;;;;;;;;;;;;;19.85;100.00;98195.59;4992772;28;20024;-78
2022/09/07 09:40:56;;;;;;;;;;;;;;;19.99;100.00;98192.59;4992732;28;19925;-78
2022/09/07 09:43:25;;;;;;;;;;;;;;;19.44;100.00;98198.69;4992171;28;19926;-78
2022/09/07 09:45:54;;;;;;;;;;;;;;;20.17;100.00;98199.91;4992480;28;19933;-79
2022/09/07 09:48:41;;;;;;;;;;;;;;;20.45;100.00;98203.63;4992235;28;20020;-79
2022/09/07 09:51:14;;;;;;;;;;;;;;;20.07;100.00;98207.06;4992573;28;20016;-78
2022/09/07 09:54:04;;;;;;;;;;;;;;;19.77;100.00;98205.84;4999433;28;19926;-78
2022/09/07 09:56:37;;;;;;;;;;;;;;;19.42;100.00;98208.94;5074027;28;20326;-78
2022/09/07 09:59:12;;;;;;;;;;;;;;;19.71;100.00;98202.97;5072946;28;20264;-79
2022/09/07 10:02:15;;;;;;;;;;;;;;;19.31;100.00;98203.22;5056406;28;19928;-80
2022/09/07 10:05:18;;;;;;;;;;;;;;;19.47;100.00;98200.50;5073097;28;19978;-78
2022/09/07 10:07:50;;;;;;;;;;;;;;;19.79;100.00;98186.28;5073838;28;20267;-78
2022/09/07 10:10:17;;;;;;;;;;;;;;;20.06;100.00;98191.31;5073882;28;19928;-78
2022/09/07 10:12:45;;;;;;;;;;;;;;;20.16;100.00;98181.34;5073895;28;19925;-78
2022/09/07 10:15:26;;;;;;;;;;;;;;;20.73;100.00;98191.09;5073813;28;19931;-78
2022/09/07 10:17:53;;;;;;;;;;;;;;;20.90;100.00;98183.38;5055719;28;19928;-79
2022/09/07 10:20:20;;;;;;;;;;;;;;;21.17;100.00;98185.47;5073786;28;20336;-79
2022/09/07 10:22:50;;;;;;;;;;;;;;;21.19;100.00;98196.31;5073647;28;20028;-79
2022/09/07 10:25:29;;;;;;;;;;;;;;;20.61;100.00;98200.88;5072379;28;19931;-79
2022/09/07 10:28:02;;;;;;;;;;;;;;;20.93;100.00;98192.94;5055462;28;19925;-79
2022/09/07 10:30:35;;;;;;;;;;;;;;;20.49;100.00;98198.50;5073570;28;19925;-79
2022/09/07 10:33:12;;;;;;;;;;;;;;;20.38;100.00;98198.44;5055359;28;19928;-79
2022/09/07 10:35:47;;;;;;;;;;;;;;;19.87;100.00;98176.81;5073695;28;19939;-78
2022/09/07 10:38:15;;;;;;;;;;;;;;;19.79;100.00;98192.72;5073547;28;19925;-78
2022/09/07 10:40:46;;;;;;;;;;;;;;;20.19;100.00;98188.84;5055526;28;19925;-78
2022/09/07 10:43:31;;;;;;;;;;;;;;;19.54;100.00;98191.53;5073534;28;19928;-78
2022/09/07 10:46:10;;;;;;;;;;;;;;;19.70;100.00;98202.19;5073489;28;19947;-78
2022/09/07 10:48:44;;;;;;;;;;;;;;;20.10;100.00;98200.38;5055520;28;19988;-79
2022/09/07 10:51:26;;;;;;;;;;;;;;;19.97;100.00;98191.53;5073385;28;19931;-78
2022/09/07 10:54:01;;;;;;;;;;;;;;;19.53;100.00;98209.03;5073412;28;20484;-78
2022/09/07 10:56:59;;;;;;;;;;;;;;;20.32;100.00;98201.28;5073287;28;20032;-79
2022/09/07 10:59:26;;;;;;;;;;;;;;;20.40;100.00;98184.53;5055432;28;19931;-78
2022/09/07 11:02:19;;;;;;;;;;;;;;;21.14;100.00;98180.81;5072957;28;19928;-78
2022/09/07 11:05:05;;;;;;;;;;;;;;;21.09;100.00;98178.00;5055444;28;19925;-79
2022/09/07 11:07:51;;;;;;;;;;;;;;;21.30;100.00;98168.72;5072111;28;19925;-79
2022/09/07 11:10:30;;;;;;;;;;;;;;;20.92;100.00;98174.31;5073266;28;19925;-78
2022/09/07 11:13:00;;;;;;;;;;;;;;;21.48;100.00;98173.06;5073008;28;20026;-78
2022/09/07 11:15:33;;;;;;;;;;;;;;;22.07;100.00;98164.19;5075095;28;20277;-79
2022/09/07 11:18:01;;;;;;;;;;;;;;;21.29;100.00;98170.00;5059105;28;20354;-78
2022/09/07 11:20:31;;;;;;;;;;;;;;;20.92;100.00;98162.97;5076864;28;19978;-78
2022/09/07 11:23:14;;;;;;;;;;;;;;;21.01;100.00;98157.06;5076670;28;19924;-78
2022/09/07 11:25:56;;;;;;;;;;;;;;;20.22;100.00;98182.16;5042313;28;20264;-79
2022/09/07 11:28:31;;;;;;;;;;;;;;;20.15;100.00;98172.06;5076508;28;20322;-80
2022/09/07 11:31:02;;;;;;;;;;;;;;;20.27;100.00;98167.97;5058808;28;20299;-78
2022/09/07 11:33:36;;;;;;;;;;;;;;;20.66;100.00;98168.88;5058838;28;19925;-79
2022/09/07 11:36:06;;;;;;;;;;;;;;;21.13;100.00;98172.81;5076717;28;19975;-79
2022/09/07 11:38:52;;;;;;;;;;;;;;;21.61;100.00;98166.88;5058906;28;20310;-79
2022/09/07 11:41:40;;;;;;;;;;;;;;;21.15;100.00;98164.56;5076719;28;19924;-79
2022/09/07 11:44:23;;;;;;;;;;;;;;;21.47;100.00;98156.53;5075276;28;19986;-79
2022/09/07 11:46:53;;;;;;;;;;;;;;;21.59;100.00;98141.03;5058584;28;19974;-79
2022/09/07 11:49:21;;;;;;;;;;;;;;;21.39;100.00;98147.75;5076521;28;19925;-79
2022/09/07 11:52:04;;;;;;;;;;;;;;;21.35;100.00;98144.44;5075335;28;19925;-79
2022/09/07 11:54:50;;;;;;;;;;;;;;;21.48;100.00;98136.13;5058386;28;19932;-79
2022/09/07 11:57:37;;;;;;;;;;;;;;;21.78;100.00;98131.44;5076283;28;19932;-78
2022/09/07 12:00:09;;;;;;;;;;;;;;;21.87;100.00;98134.00;5058037;28;20401;-79
2022/09/07 12:02:55;;;;;;;;;;;;;;;22.19;100.00;98131.56;5076140;28;19931;-79
2022/09/07 12:05:27;;;;;;;;;;;;;;;21.89;100.00;98137.09;5074938;28;20291;-79
2022/09/07 12:08:13;;;;;;;;;;;;;;;21.71;100.00;98129.13;5058141;28;19931;-79
2022/09/07 12:11:01;;;;;;;;;;;;;;;22.09;100.00;98128.25;5058385;28;20099;-79
2022/09/07 12:13:47;;;;;;;;;;;;;;;22.42;100.00;98130.13;5075630;28;19930;-79
2022/09/07 12:16:20;;;;;;;;;;;;;;;21.86;100.00;98123.94;5058115;28;19932;-79
2022/09/07 12:18:57;;;;;;;;;;;;;;;21.59;100.00;98119.06;5074671;28;20275;-79
2022/09/07 12:21:33;;;;;;;;;;;;;;;20.83;100.00;98138.44;5075232;28;19928;-78
2022/09/07 12:24:01;;;;;;;;;;;;;;;22.10;100.00;98123.34;5060492;28;19970;-79
2022/09/07 12:26:34;;;;;;;;;;;;;;;22.21;100.00;98123.25;5075724;28;19928;-78
2022/09/07 12:29:04;;;;;;;;;;;;;;;22.70;100.00;98108.00;5075184;28;19924;-79
2022/09/07 12:31:45;;;;;;;;;;;;;;;22.82;100.00;98115.16;5075382;28;19947;-79
2022/09/07 12:34:36;;;;;;;;;;;;;;;23.10;100.00;98107.16;5075317;28;19929;-79
2022/09/07 12:37:22;;;;;;;;;;;;;;;22.53;100.00;98110.97;5057612;28;19928;-79
2022/09/07 12:39:49;;;;;;;;;;;;;;;22.87;100.00;98111.53;5075382;28;19960;-79
2022/09/07 12:42:24;;;;;;;;;;;;;;;22.50;100.00;98116.91;5073942;28;19925;-79
2022/09/07 12:45:17;;;;;;;;;;;;;;;23.17;100.00;98109.44;5075107;28;19925;-79
2022/09/07 12:47:55;;;;;;;;;;;;;;;22.72;100.00;98111.09;5073982;28;19947;-79
2022/09/07 12:50:28;;;;;;;;;;;;;;;23.11;100.00;98117.28;5076049;28;19929;-79
2022/09/07 12:53:14;;;;;;;;;;;;;;;22.62;100.00;98113.50;5075168;28;20402;-79
2022/09/07 12:56:13;;;;;;;;;;;;;;;23.05;100.00;98111.59;5057319;28;19924;-79
2022/09/07 12:58:45;;;;;;;;;;;;;;;23.37;100.00;98102.56;5075026;28;20265;-79
2022/09/07 13:01:21;;;;;;;;;;;;;;;22.31;100.00;98099.66;5075637;28;19946;-79